Time;durP1;ratioP1;P1;durP2;ratioP2;P2;SDS_P1;SDS_P2;PMS_P1;PMS_P2;Temp;Humidity;BMP_temperature;BMP_pressure;BME280_temperature;BME280_humidity;BME280_pressure;Samples;Min_cycle;Max_cycle;Signal;HPM_P1;HPM_P2
2023/01/28 00:00:40;;;;;;;19.83;13.77;;;1.80;99.90;;;;;;2031869;29;20040;-73
2023/01/28 00:01:41;;;;;;;20.42;14.30;;;1.70;99.90;;;;;;2034355;29;20060;-73
2023/01/28 00:02:41;;;;;;;21.75;14.20;;;1.70;99.90;;;;;;2042006;29;20039;-72
2023/01/28 00:03:42;;;;;;;23.00;15.60;;;1.70;99.90;;;;;;2041239;29;20386;-73
2023/01/28 00:04:43;;;;;;;22.73;14.73;;;1.60;99.90;;;;;;2043055;29;20054;-72
2023/01/28 00:05:44;;;;;;;21.77;14.13;;;1.60;99.90;;;;;;2043008;29;20110;-75
2023/01/28 00:06:44;;;;;;;20.45;14.25;;;1.60;99.90;;;;;;2038341;28;20051;-74
2023/01/28 00:07:48;;;;;;;21.10;14.10;;;1.60;99.90;;;;;;2030276;29;20032;-74
2023/01/28 00:08:49;;;;;;;22.25;14.82;;;1.60;99.90;;;;;;2034674;29;20558;-72
2023/01/28 00:09:49;;;;;;;21.00;14.30;;;1.60;99.90;;;;;;2040216;29;20036;-72
2023/01/28 00:10:50;;;;;;;20.98;14.10;;;1.60;99.90;;;;;;2042482;29;20065;-73
2023/01/28 00:11:50;;;;;;;23.27;15.95;;;1.60;99.90;;;;;;2033837;29;20047;-72
2023/01/28 00:12:51;;;;;;;20.52;14.07;;;1.60;99.90;;;;;;2036323;29;20043;-73
2023/01/28 00:13:53;;;;;;;20.42;14.13;;;1.60;99.90;;;;;;2044321;28;20036;-73
2023/01/28 00:14:53;;;;;;;23.60;14.80;;;1.60;99.90;;;;;;2041431;29;20409;-72
2023/01/28 00:15:59;;;;;;;19.75;13.38;;;1.60;99.90;;;;;;2042579;29;20035;-72
2023/01/28 00:17:00;;;;;;;20.02;13.38;;;1.60;99.90;;;;;;2033669;29;20727;-72
2023/01/28 00:18:00;;;;;;;18.25;12.85;;;1.60;99.90;;;;;;2034976;29;20036;-72
2023/01/28 00:19:01;;;;;;;19.55;13.05;;;1.60;99.90;;;;;;2044150;28;20031;-72
2023/01/28 00:20:03;;;;;;;20.42;13.20;;;1.50;99.90;;;;;;2040868;28;20560;-73
2023/01/28 00:21:13;;;;;;;21.48;13.60;;;1.50;99.90;;;;;;2042111;29;20506;-72
2023/01/28 00:22:16;;;;;;;19.60;12.93;;;1.50;99.90;;;;;;2039790;28;20143;-72
2023/01/28 00:23:19;;;;;;;19.00;13.15;;;1.50;99.90;;;;;;2042528;29;20078;-74
2023/01/28 00:24:20;;;;;;;18.15;12.13;;;1.50;99.90;;;;;;2040808;28;20042;-73
2023/01/28 00:25:21;;;;;;;19.52;13.35;;;1.50;99.90;;;;;;2040076;29;20031;-74
2023/01/28 00:26:27;;;;;;;19.70;12.88;;;1.50;99.90;;;;;;2032580;29;20040;-73
2023/01/28 00:27:28;;;;;;;19.58;13.23;;;1.40;99.90;;;;;;2036225;29;20031;-73
2023/01/28 00:28:31;;;;;;;18.42;13.35;;;1.40;99.90;;;;;;2041631;28;20035;-73
2023/01/28 00:29:32;;;;;;;20.55;12.85;;;1.40;99.90;;;;;;2041445;29;20231;-73
2023/01/28 00:30:32;;;;;;;20.85;13.40;;;1.40;99.90;;;;;;2038498;28;20028;-73
2023/01/28 00:31:34;;;;;;;18.83;12.63;;;1.40;99.90;;;;;;2037915;29;20083;-73
2023/01/28 00:32:34;;;;;;;19.33;12.82;;;1.40;99.90;;;;;;2039869;28;20031;-73
2023/01/28 00:33:36;;;;;;;19.70;13.38;;;1.40;99.90;;;;;;2039508;29;20126;-72
2023/01/28 00:34:36;;;;;;;19.73;13.18;;;1.40;99.90;;;;;;2038587;28;20031;-75
2023/01/28 00:35:41;;;;;;;19.52;13.48;;;1.40;99.90;;;;;;2038692;29;20046;-73
2023/01/28 00:36:41;;;;;;;19.70;12.82;;;1.40;99.90;;;;;;2039359;28;20027;-73
2023/01/28 00:37:46;;;;;;;20.33;13.32;;;1.40;99.90;;;;;;2044557;28;20478;-73
2023/01/28 00:38:53;;;;;;;19.52;13.52;;;1.40;99.90;;;;;;2039096;29;20068;-74
2023/01/28 00:39:54;;;;;;;19.90;13.43;;;1.30;99.90;;;;;;2040483;28;20439;-74
2023/01/28 00:40:55;;;;;;;19.73;13.98;;;1.40;99.90;;;;;;2021402;29;20033;-73
2023/01/28 00:41:57;;;;;;;20.30;14.15;;;1.30;99.90;;;;;;2022079;29;20124;-73
2023/01/28 00:42:58;;;;;;;19.55;13.43;;;1.40;99.90;;;;;;2041967;29;20039;-73
2023/01/28 00:43:59;;;;;;;20.25;13.77;;;1.30;99.90;;;;;;2043778;28;20062;-74
2023/01/28 00:45:00;;;;;;;20.83;13.43;;;1.40;99.90;;;;;;2036826;28;20044;-72
2023/01/28 00:46:01;;;;;;;20.88;13.13;;;1.40;99.90;;;;;;2038271;28;20055;-72
2023/01/28 00:47:02;;;;;;;20.77;13.13;;;1.50;99.90;;;;;;2041840;29;20540;-72
2023/01/28 00:48:03;;;;;;;18.63;12.63;;;1.50;99.90;;;;;;2033933;29;20036;-73
2023/01/28 00:49:04;;;;;;;22.25;13.93;;;1.40;99.90;;;;;;2027924;29;20036;-73
2023/01/28 00:50:05;;;;;;;22.77;14.65;;;1.40;99.90;;;;;;2026080;29;20520;-73
2023/01/28 00:51:10;;;;;;;20.48;13.27;;;1.40;99.90;;;;;;2038551;29;20027;-74
2023/01/28 00:52:10;;;;;;;20.10;12.93;;;1.40;99.90;;;;;;2042055;28;20038;-73
2023/01/28 00:53:14;;;;;;;20.08;13.02;;;1.40;99.90;;;;;;2043664;28;20122;-76
2023/01/28 00:54:15;;;;;;;19.00;12.63;;;1.50;99.90;;;;;;2041828;28;20051;-76
2023/01/28 00:55:16;;;;;;;20.02;12.82;;;1.50;99.90;;;;;;2041715;28;20479;-76
2023/01/28 00:56:18;;;;;;;20.73;13.02;;;1.50;99.90;;;;;;2040029;29;20118;-75
2023/01/28 00:57:19;;;;;;;21.25;13.50;;;1.50;99.90;;;;;;2042301;28;20027;-76
2023/01/28 00:58:20;;;;;;;20.55;13.50;;;1.60;99.90;;;;;;2033513;29;20031;-76
2023/01/28 00:59:20;;;;;;;20.52;13.38;;;1.60;99.90;;;;;;2030364;29;20483;-76
2023/01/28 01:00:24;;;;;;;23.35;14.07;;;1.60;99.90;;;;;;2035903;29;20675;-76
2023/01/28 01:01:26;;;;;;;20.77;14.13;;;1.50;99.90;;;;;;2026499;29;20043;-76
2023/01/28 01:02:27;;;;;;;21.20;13.88;;;1.50;99.90;;;;;;2029253;29;20100;-77
2023/01/28 01:03:30;;;;;;;20.20;13.27;;;1.50;99.90;;;;;;2033558;29;20195;-76
2023/01/28 01:04:34;;;;;;;21.23;13.80;;;1.50;99.90;;;;;;2031828;29;20059;-77
2023/01/28 01:05:37;;;;;;;20.52;14.07;;;1.50;99.90;;;;;;2038694;29;20523;-75
2023/01/28 01:06:49;;;;;;;20.35;13.82;;;1.40;99.90;;;;;;2031150;29;20821;-76
2023/01/28 01:07:49;;;;;;;21.35;14.10;;;1.40;99.90;;;;;;2037379;29;20091;-78
2023/01/28 01:08:50;;;;;;;21.88;14.55;;;1.40;99.90;;;;;;2039586;28;20046;-77
2023/01/28 01:09:51;;;;;;;22.90;15.00;;;1.40;99.90;;;;;;2042381;28;20324;-76
2023/01/28 01:10:57;;;;;;;19.45;14.20;;;1.50;99.90;;;;;;2044525;28;20031;-77
2023/01/28 01:11:57;;;;;;;23.30;14.77;;;1.50;99.90;;;;;;2042304;28;20505;-73
2023/01/28 01:12:58;;;;;;;23.17;14.43;;;1.50;99.90;;;;;;2039733;29;20110;-78
2023/01/28 01:14:00;;;;;;;23.23;15.43;;;1.60;99.90;;;;;;2033835;29;20110;-75
2023/01/28 01:15:00;;;;;;;22.77;14.15;;;1.60;99.90;;;;;;2037460;29;20086;-75
2023/01/28 01:16:14;;;;;;;22.45;13.85;;;1.50;99.90;;;;;;2034016;29;20019;-76
2023/01/28 01:17:15;;;;;;;23.10;14.82;;;1.60;99.90;;;;;;2033845;29;20035;-77
2023/01/28 01:18:18;;;;;;;22.42;14.85;;;1.50;99.90;;;;;;2025251;29;20400;-75
2023/01/28 01:19:18;;;;;;;23.88;14.35;;;1.50;99.90;;;;;;2034022;29;20558;-75
2023/01/28 01:20:24;;;;;;;22.02;15.02;;;1.50;99.90;;;;;;2044522;29;20035;-75
2023/01/28 01:21:27;;;;;;;23.00;15.52;;;1.50;99.90;;;;;;2044416;29;20075;-77
2023/01/28 01:22:30;;;;;;;22.50;14.73;;;1.50;99.90;;;;;;2033558;29;20463;-78
2023/01/28 01:23:30;;;;;;;22.75;14.77;;;1.50;99.90;;;;;;2032875;29;20027;-70
2023/01/28 01:24:32;;;;;;;26.83;16.15;;;1.50;99.90;;;;;;2030563;29;20140;-75
2023/01/28 01:25:33;;;;;;;26.73;16.38;;;1.60;99.90;;;;;;2032002;29;20034;-72
2023/01/28 01:26:34;;;;;;;25.65;16.15;;;1.50;99.90;;;;;;2041592;28;20039;-83
2023/01/28 01:27:35;;;;;;;23.80;15.90;;;1.50;99.90;;;;;;2034327;29;20077;-81
2023/01/28 01:28:36;;;;;;;26.17;16.98;;;1.60;99.90;;;;;;2034095;29;20028;-81
2023/01/28 01:29:42;;;;;;;27.38;16.50;;;1.60;99.90;;;;;;2046687;28;20109;-82
2023/01/28 01:30:43;;;;;;;29.45;17.33;;;1.60;99.90;;;;;;2042225;28;20429;-80
2023/01/28 01:31:44;;;;;;;27.52;17.40;;;1.60;99.90;;;;;;2035903;29;20024;-82
2023/01/28 01:32:44;;;;;;;25.77;17.17;;;1.50;99.90;;;;;;2034125;29;20518;-82
2023/01/28 01:33:47;;;;;;;25.77;16.33;;;1.50;99.90;;;;;;2038523;29;20050;-82
2023/01/28 01:34:48;;;;;;;25.58;16.30;;;1.60;99.90;;;;;;2026410;29;20048;-81
2023/01/28 01:35:53;;;;;;;26.83;16.85;;;1.60;99.90;;;;;;2039819;29;20027;-81
2023/01/28 01:36:54;;;;;;;27.40;16.75;;;1.60;99.90;;;;;;2047356;28;20054;-82
2023/01/28 01:37:58;;;;;;;24.52;16.40;;;1.60;99.90;;;;;;2035523;29;20547;-82
2023/01/28 01:39:01;;;;;;;24.88;16.52;;;1.50;99.90;;;;;;2026202;29;20040;-82
2023/01/28 01:40:09;;;;;;;25.58;16.05;;;1.50;99.90;;;;;;2036513;29;20031;-80
2023/01/28 01:41:24;;;;;;;26.08;17.15;;;1.50;99.90;;;;;;2033878;29;20407;-81
2023/01/28 01:42:25;;;;;;;29.10;17.73;;;1.40;99.90;;;;;;2038316;29;20044;-83
2023/01/28 01:43:52;;;;;;;25.52;16.02;;;1.40;99.90;;;;;;2041590;28;20039;-80
2023/01/28 01:45:05;;;;;;;24.42;15.82;;;1.40;99.90;;;;;;2039486;29;20435;-80
2023/01/28 01:46:05;;;;;;;24.50;15.82;;;1.40;99.90;;;;;;2042154;29;20102;-80
2023/01/28 01:47:09;;;;;;;22.33;14.82;;;1.40;99.90;;;;;;2036180;29;20189;-82
2023/01/28 01:48:29;;;;;;;21.40;14.18;;;1.50;99.90;;;;;;2036243;29;20152;-81
2023/01/28 01:49:30;;;;;;;25.77;14.38;;;1.50;99.90;;;;;;2032358;29;20399;-82
2023/01/28 01:50:41;;;;;;;27.13;15.88;;;1.50;99.90;;;;;;2033862;29;20776;-80
2023/01/28 01:51:43;;;;;;;25.33;14.68;;;1.40;99.90;;;;;;2042701;28;20039;-80
2023/01/28 01:52:48;;;;;;;23.67;14.40;;;1.50;99.90;;;;;;2044410;28;20505;-79
2023/01/28 01:53:52;;;;;;;24.52;15.05;;;1.50;99.90;;;;;;2042441;29;20035;-80
2023/01/28 01:54:59;;;;;;;25.10;14.63;;;1.50;99.90;;;;;;2025979;29;20396;-81
2023/01/28 01:56:05;;;;;;;23.10;14.07;;;1.60;99.90;;;;;;2027740;29;20028;-81
2023/01/28 01:57:08;;;;;;;21.13;13.65;;;1.60;99.90;;;;;;2042525;29;20031;-81
2023/01/28 01:58:13;;;;;;;23.65;14.05;;;1.60;99.90;;;;;;2041734;29;20090;-81
2023/01/28 01:59:21;;;;;;;21.60;14.02;;;1.60;99.90;;;;;;2041784;29;20473;-81
2023/01/28 02:00:21;;;;;;;21.90;14.43;;;1.50;99.90;;;;;;2025728;29;20059;-82
2023/01/28 02:01:26;;;;;;;24.30;14.55;;;1.50;99.90;;;;;;2028150;29;20036;-80
2023/01/28 02:02:27;;;;;;;20.05;13.70;;;1.50;99.90;;;;;;2042311;29;20602;-80
2023/01/28 02:03:37;;;;;;;22.83;13.93;;;1.40;99.90;;;;;;2033839;29;20120;-80
2023/01/28 02:04:39;;;;;;;;;;;1.50;99.90;;;;;;2034584;29;20050;-80
2023/01/28 02:05:41;;;;;;;25.10;14.20;;;1.50;99.90;;;;;;2040686;29;19914;-80
2023/01/28 02:06:43;;;;;;;22.85;14.75;;;1.50;99.90;;;;;;2043246;28;20035;-80
2023/01/28 02:07:46;;;;;;;23.88;14.55;;;1.40;99.90;;;;;;2036597;29;20299;-79
2023/01/28 02:08:46;;;;;;;24.48;13.88;;;1.40;99.90;;;;;;2036080;29;20059;-80
2023/01/28 02:09:47;;;;;;;23.80;15.00;;;1.40;99.90;;;;;;2025940;29;20040;-81
2023/01/28 02:10:59;;;;;;;27.58;15.35;;;1.40;99.90;;;;;;2026264;29;20062;-81
2023/01/28 02:12:13;;;;;;;23.05;13.88;;;1.40;99.90;;;;;;2041370;28;20458;-80
2023/01/28 02:13:16;;;;;;;25.00;13.90;;;1.40;99.90;;;;;;2033866;29;20040;-80
2023/01/28 02:14:17;;;;;;;21.33;14.20;;;1.40;99.90;;;;;;2025101;29;20115;-79
2023/01/28 02:15:20;;;;;;;21.08;13.65;;;1.40;99.90;;;;;;2035105;29;20503;-80
2023/01/28 02:16:22;;;;;;;22.48;14.63;;;1.50;99.90;;;;;;2036049;29;20050;-79
2023/01/28 02:17:25;;;;;;;22.65;13.90;;;1.50;99.90;;;;;;2042184;29;20287;-79
2023/01/28 02:18:26;;;;;;;24.90;13.88;;;1.50;99.90;;;;;;2044207;29;20035;-78
2023/01/28 02:19:38;;;;;;;19.33;12.85;;;1.50;99.90;;;;;;2030355;29;20119;-83
2023/01/28 02:21:04;;;;;;;21.10;13.75;;;1.60;99.90;;;;;;2028862;29;20024;-80
2023/01/28 02:22:21;;;;;;;26.38;14.15;;;1.50;99.90;;;;;;2030732;29;20628;-80
2023/01/28 02:23:49;;;;;;;21.83;13.73;;;1.50;99.90;;;;;;2035593;28;20035;-80
2023/01/28 02:24:58;;;;;;;23.70;13.75;;;1.50;99.90;;;;;;2038620;29;20026;-80
2023/01/28 02:26:34;;;;;;;25.08;13.48;;;1.50;99.90;;;;;;2044856;28;20030;-80
2023/01/28 02:27:54;;;;;;;20.70;13.25;;;1.50;99.90;;;;;;2039705;29;20039;-80
2023/01/28 02:29:23;;;;;;;20.05;13.60;;;1.50;99.90;;;;;;2039595;28;20039;-80
2023/01/28 02:30:38;;;;;;;20.33;13.00;;;1.50;99.90;;;;;;2036464;29;20075;-80
2023/01/28 02:31:51;;;;;;;21.55;12.50;;;1.50;99.90;;;;;;2038979;29;20035;-80
2023/01/28 02:32:56;;;;;;;21.27;12.77;;;1.50;99.90;;;;;;2039630;28;20024;-79
2023/01/28 02:34:07;;;;;;;23.45;13.98;;;1.50;99.90;;;;;;2033314;29;20034;-79
2023/01/28 02:35:36;;;;;;;23.52;14.27;;;1.50;99.90;;;;;;2035752;29;20055;-81
2023/01/28 02:37:06;;;;;;;22.65;13.75;;;1.50;99.90;;;;;;2034336;29;20749;-81
2023/01/28 02:38:27;;;;;;;23.00;13.82;;;1.40;99.90;;;;;;2036467;29;20322;-80
2023/01/28 02:39:34;;;;;;;22.40;13.90;;;1.40;99.90;;;;;;2043533;28;20464;-80
2023/01/28 02:42:12;;;;;;;22.23;13.95;;;1.40;99.90;;;;;;2035507;29;20031;-78
2023/01/28 02:43:13;;;;;;;23.00;14.90;;;1.50;99.90;;;;;;2029379;29;20043;-81
2023/01/28 02:44:15;;;;;;;23.58;14.27;;;1.50;99.90;;;;;;2027720;29;20028;-80
2023/01/28 02:48:13;;;;;;;22.45;14.23;;;1.40;99.90;;;;;;2041058;28;20027;-80
2023/01/28 02:49:26;;;;;;;22.23;13.80;;;1.40;99.90;;;;;;2042982;29;20083;-81
2023/01/28 02:50:39;;;;;;;23.90;14.05;;;1.30;99.90;;;;;;2032835;29;20507;-80
2023/01/28 02:52:02;;;;;;;23.60;14.13;;;1.40;99.90;;;;;;2025579;29;20047;-80
2023/01/28 02:54:58;;;;;;;24.33;14.00;;;1.30;99.90;;;;;;2042735;29;20038;-80
2023/01/28 02:56:09;;;;;;;22.65;14.18;;;1.30;99.90;;;;;;2032321;29;20039;-80
2023/01/28 02:57:55;;;;;;;22.20;13.50;;;1.30;99.90;;;;;;2036034;29;20051;-79
2023/01/28 03:00:55;;;;;;;20.73;12.32;;;1.40;99.90;;;;;;2031355;29;20028;-80
2023/01/28 03:02:19;;;;;;;21.63;13.15;;;1.40;99.90;;;;;;2039623;29;20035;-80
2023/01/28 03:03:47;;;;;;;19.48;12.90;;;1.30;99.90;;;;;;2033584;29;20152;-81
2023/01/28 03:05:09;;;;;;;19.40;12.77;;;1.30;99.90;;;;;;2032281;29;20088;-80
2023/01/28 03:06:17;;;;;;;22.63;13.15;;;1.30;99.90;;;;;;2038670;28;20046;-80
2023/01/28 03:07:19;;;;;;;21.65;13.57;;;1.20;99.90;;;;;;2036808;29;20217;-80
2023/01/28 03:09:42;;;;;;;24.13;14.23;;;1.20;99.90;;;;;;2034898;29;20327;-80
2023/01/28 03:10:43;;;;;;;22.05;13.85;;;1.20;99.90;;;;;;2035246;29;20521;-79
2023/01/28 03:37:14;;;;;;;25.67;15.60;;;1.20;99.90;;;;;;2032561;29;20470;-79
2023/01/28 03:38:21;;;;;;;23.27;15.00;;;1.20;99.90;;;;;;2029365;29;20153;-79
2023/01/28 03:39:25;;;;;;;22.63;15.40;;;1.20;99.90;;;;;;2025038;29;20052;-80
2023/01/28 03:40:27;;;;;;;24.55;15.43;;;1.20;99.90;;;;;;2028619;29;20036;-81
2023/01/28 03:41:27;;;;;;;21.75;14.88;;;1.20;99.90;;;;;;2026408;29;20682;-82
2023/01/28 03:42:31;;;;;;;20.83;14.25;;;1.20;99.90;;;;;;2039900;29;20593;-78
2023/01/28 03:43:40;;;;;;;24.02;15.90;;;1.20;99.90;;;;;;2027294;29;20484;-79
2023/01/28 03:44:52;;;;;;;22.67;15.32;;;1.20;99.90;;;;;;2022171;29;20478;-70
2023/01/28 03:45:54;;;;;;;24.65;15.82;;;1.20;99.90;;;;;;2041459;28;20031;-80
2023/01/28 03:46:56;;;;;;;22.45;15.68;;;1.10;99.90;;;;;;2045491;29;20035;-79
2023/01/28 03:47:56;;;;;;;24.63;15.55;;;1.10;99.90;;;;;;2043235;28;20106;-81
2023/01/28 03:48:57;;;;;;;25.83;16.00;;;1.10;99.90;;;;;;2045825;28;20106;-80
2023/01/28 03:50:00;;;;;;;26.50;15.73;;;1.10;99.90;;;;;;2043873;28;20530;-81
2023/01/28 03:51:03;;;;;;;24.55;14.70;;;1.10;99.90;;;;;;2041613;28;20027;-81
2023/01/28 03:52:04;;;;;;;23.13;14.88;;;1.00;99.90;;;;;;2042844;29;20085;-81
2023/01/28 03:53:14;;;;;;;22.77;14.45;;;1.00;99.90;;;;;;2042841;29;20065;-81
2023/01/28 03:54:41;;;;;;;22.88;14.60;;;1.00;99.90;;;;;;2042101;28;20039;-77
2023/01/28 03:55:42;;;;;;;23.33;14.43;;;1.00;99.90;;;;;;2045242;28;20502;-79
2023/01/28 03:56:42;;;;;;;20.55;14.18;;;0.90;99.90;;;;;;2034811;29;20035;-80
2023/01/28 03:57:43;;;;;;;20.90;14.05;;;0.90;99.90;;;;;;2030377;29;20039;-79
2023/01/28 03:58:51;;;;;;;22.98;14.70;;;1.00;99.90;;;;;;2034549;29;20032;-81
2023/01/28 03:59:53;;;;;;;22.05;14.55;;;1.00;99.90;;;;;;2027431;29;20020;-81
2023/01/28 04:00:54;;;;;;;21.75;13.82;;;0.90;99.90;;;;;;2028218;29;20043;-81
2023/01/28 04:01:54;;;;;;;22.45;14.50;;;0.90;99.90;;;;;;2034273;29;20035;-81
2023/01/28 04:02:55;;;;;;;23.02;14.30;;;0.90;99.90;;;;;;2042317;29;20171;-80
2023/01/28 04:03:56;;;;;;;23.05;14.65;;;0.90;99.90;;;;;;2035037;29;20046;-80
2023/01/28 04:05:05;;;;;;;23.08;14.48;;;0.80;99.90;;;;;;2036764;29;20054;-81
2023/01/28 04:06:08;;;;;;;22.42;14.65;;;0.80;99.90;;;;;;2040210;28;20035;-80
2023/01/28 04:07:28;;;;;;;22.70;14.75;;;0.70;99.90;;;;;;2039957;29;20039;-82
2023/01/28 04:08:58;;;;;;;20.85;13.82;;;0.80;99.90;;;;;;2034369;29;20072;-81
2023/01/28 04:10:15;;;;;;;21.67;13.77;;;0.70;99.90;;;;;;2034964;29;20027;-82
2023/01/28 04:11:24;;;;;;;25.42;14.05;;;0.70;99.90;;;;;;2042578;28;20066;-81
2023/01/28 04:12:25;;;;;;;21.10;13.07;;;0.70;99.90;;;;;;2035150;29;20047;-83
2023/01/28 04:13:27;;;;;;;21.73;13.38;;;0.70;99.90;;;;;;2028605;29;20083;-81
2023/01/28 04:14:29;;;;;;;19.90;12.82;;;0.70;99.90;;;;;;2034781;29;20091;-83
2023/01/28 04:15:52;;;;;;;21.27;12.23;;;0.80;99.90;;;;;;2040790;28;20463;-80
2023/01/28 04:16:53;;;;;;;17.80;11.82;;;0.80;99.90;;;;;;2034627;29;20049;-82
2023/01/28 04:17:54;;;;;;;18.30;12.25;;;0.80;99.90;;;;;;2034654;29;20119;-81
2023/01/28 04:19:02;;;;;;;17.95;11.63;;;0.70;99.90;;;;;;2042870;28;20232;-80
2023/01/28 04:20:03;;;;;;;18.27;11.40;;;0.60;99.90;;;;;;2036974;29;20495;-82
2023/01/28 04:21:04;;;;;;;18.58;12.50;;;0.60;99.90;;;;;;2028395;29;20508;-81
2023/01/28 04:22:09;;;;;;;18.85;12.75;;;0.60;99.90;;;;;;2032447;29;20035;-80
2023/01/28 04:23:10;;;;;;;21.33;13.05;;;0.50;99.90;;;;;;2035413;29;20028;-78
2023/01/28 04:24:10;;;;;;;21.75;13.88;;;0.50;99.90;;;;;;2044523;29;20498;-79
2023/01/28 04:25:11;;;;;;;19.55;13.00;;;0.40;99.90;;;;;;2040036;29;20087;-78
2023/01/28 04:26:11;;;;;;;20.65;13.73;;;0.40;99.90;;;;;;2040944;29;20557;-81
2023/01/28 04:27:12;;;;;;;19.42;12.73;;;0.40;99.90;;;;;;2042940;28;20499;-80
2023/01/28 04:28:12;;;;;;;18.65;12.63;;;0.40;99.90;;;;;;2044076;28;20431;-79
2023/01/28 04:29:13;;;;;;;19.15;12.40;;;0.40;99.90;;;;;;2034004;29;20628;-78
2023/01/28 04:30:14;;;;;;;15.93;11.40;;;0.40;99.90;;;;;;2023357;29;20291;-79
2023/01/28 04:31:22;;;;;;;19.02;11.68;;;0.40;99.90;;;;;;2033207;29;20030;-81
2023/01/28 04:32:41;;;;;;;17.60;11.52;;;0.30;99.90;;;;;;2038569;29;20051;-81
2023/01/28 04:34:01;;;;;;;16.10;10.88;;;0.30;99.90;;;;;;2032919;29;20549;-80
2023/01/28 04:35:13;;;;;;;17.17;11.68;;;0.30;99.90;;;;;;2035677;28;20035;-79
2023/01/28 04:36:33;;;;;;;15.43;11.02;;;0.30;99.90;;;;;;2042871;28;20519;-80
2023/01/28 04:37:52;;;;;;;16.92;10.60;;;0.20;99.90;;;;;;2031373;29;20075;-79
2023/01/28 04:39:04;;;;;;;15.95;10.65;;;0.20;99.90;;;;;;2033879;29;20479;-79
2023/01/28 04:40:12;;;;;;;14.02;9.73;;;0.10;99.90;;;;;;2040544;28;20126;-79
2023/01/28 04:41:35;;;;;;;18.55;11.00;;;0.10;99.90;;;;;;2041794;28;20062;-79
2023/01/28 04:42:42;;;;;;;16.20;10.40;;;0.00;99.90;;;;;;2043019;29;20038;-79
2023/01/28 04:44:04;;;;;;;16.67;11.05;;;0.00;99.90;;;;;;2042520;28;20098;-78
2023/01/28 04:45:23;;;;;;;19.05;10.90;;;-0.10;99.90;;;;;;2035588;29;20188;-79
2023/01/28 04:47:00;;;;;;;16.08;9.98;;;-0.10;99.90;;;;;;2023453;29;20110;-80
2023/01/28 04:48:30;;;;;;;15.43;10.13;;;-0.20;99.90;;;;;;2028605;29;20172;-80
2023/01/28 04:49:49;;;;;;;15.00;10.55;;;-0.20;99.90;;;;;;2039956;29;20223;-79
2023/01/28 04:51:01;;;;;;;15.95;10.55;;;-0.20;99.90;;;;;;2034020;29;20281;-79
2023/01/28 04:52:11;;;;;;;14.65;10.60;;;-0.20;99.90;;;;;;2035659;28;20031;-79
2023/01/28 04:53:31;;;;;;;15.35;10.25;;;-0.20;99.90;;;;;;2043897;29;20458;-79
2023/01/28 04:54:33;;;;;;;15.95;9.98;;;-0.20;99.90;;;;;;2036029;29;20044;-79
2023/01/28 04:55:36;;;;;;;14.95;10.43;;;-0.20;99.90;;;;;;2034332;29;20038;-79
2023/01/28 04:56:37;;;;;;;14.05;9.90;;;-0.10;99.90;;;;;;2038352;29;20787;-79
2023/01/28 04:57:38;;;;;;;13.63;10.05;;;-0.10;99.90;;;;;;2042595;28;20094;-79
2023/01/28 04:58:43;;;;;;;14.70;9.85;;;-0.10;99.90;;;;;;2034051;29;20562;-79
2023/01/28 04:59:48;;;;;;;16.40;10.00;;;-0.10;99.90;;;;;;2035154;28;20511;-79
2023/01/28 05:00:58;;;;;;;16.25;10.77;;;-0.10;99.90;;;;;;2039872;29;20201;-78
2023/01/28 05:01:59;;;;;;;15.40;10.20;;;-0.10;99.90;;;;;;2039956;29;20029;-78
2023/01/28 05:03:00;;;;;;;15.07;10.35;;;-0.10;99.90;;;;;;2033975;29;20074;-78
2023/01/28 05:04:04;;;;;;;14.30;10.00;;;-0.10;99.90;;;;;;2034291;29;20024;-78
2023/01/28 05:05:07;;;;;;;15.70;9.85;;;-0.10;99.90;;;;;;2033977;29;20045;-78
2023/01/28 05:06:29;;;;;;;14.30;9.15;;;-0.10;99.90;;;;;;2038660;29;20122;-78
2023/01/28 05:07:36;;;;;;;14.60;9.25;;;-0.10;99.90;;;;;;2039326;28;20202;-79
2023/01/28 05:08:37;;;;;;;14.35;9.45;;;-0.20;99.90;;;;;;2034398;29;20974;-79
2023/01/28 05:09:38;;;;;;;13.35;9.57;;;-0.10;99.90;;;;;;2033158;29;20317;-78
2023/01/28 05:10:39;;;;;;;15.05;9.73;;;-0.10;99.90;;;;;;2039519;28;20055;-78
2023/01/28 05:11:40;;;;;;;13.20;9.15;;;-0.10;99.90;;;;;;2040089;28;20110;-79
2023/01/28 05:12:43;;;;;;;13.23;9.32;;;0.00;99.90;;;;;;2037547;28;20091;-79
2023/01/28 05:13:45;;;;;;;15.23;9.65;;;0.00;99.90;;;;;;2038307;28;20289;-78
2023/01/28 05:14:47;;;;;;;13.57;9.38;;;0.00;99.90;;;;;;2034487;29;20107;-79
2023/01/28 05:15:52;;;;;;;15.93;10.05;;;0.00;99.90;;;;;;2022568;29;20060;-79
2023/01/28 05:16:54;;;;;;;14.45;9.65;;;0.00;99.90;;;;;;2034146;29;20055;-79
2023/01/28 05:17:56;;;;;;;15.88;9.73;;;0.00;99.90;;;;;;2042202;28;20074;-78
2023/01/28 05:18:56;;;;;;;16.08;10.48;;;-0.10;99.90;;;;;;2039611;29;20067;-79
2023/01/28 05:19:57;;;;;;;14.80;10.35;;;-0.10;99.90;;;;;;2041796;29;20031;-79
2023/01/28 05:21:01;;;;;;;14.60;10.10;;;-0.10;99.90;;;;;;2041709;28;20031;-79
2023/01/28 05:22:03;;;;;;;15.18;10.50;;;-0.10;99.90;;;;;;2040719;28;20035;-79
2023/01/28 05:23:14;;;;;;;16.45;10.63;;;-0.20;99.90;;;;;;2039758;29;20027;-79
2023/01/28 05:24:27;;;;;;;15.95;10.30;;;-0.20;99.90;;;;;;2041825;28;20504;-78
2023/01/28 05:25:28;;;;;;;15.25;10.07;;;-0.20;99.90;;;;;;2033953;29;20032;-77
2023/01/28 05:26:29;;;;;;;15.55;10.48;;;-0.20;99.90;;;;;;2035048;29;20035;-78
2023/01/28 05:27:30;;;;;;;17.02;10.38;;;-0.30;99.90;;;;;;2028193;29;20396;-78
2023/01/28 05:28:30;;;;;;;16.98;10.15;;;-0.30;99.90;;;;;;2034064;29;20038;-78
2023/01/28 05:29:32;;;;;;;14.93;10.10;;;-0.30;99.90;;;;;;2041571;28;20061;-78
2023/01/28 05:30:33;;;;;;;15.00;10.13;;;-0.30;99.90;;;;;;2042040;28;20031;-78
2023/01/28 05:31:34;;;;;;;14.70;9.52;;;-0.20;99.90;;;;;;2043756;29;20582;-78
2023/01/28 05:32:34;;;;;;;13.10;9.25;;;-0.20;99.90;;;;;;2033955;29;20511;-78
2023/01/28 05:33:35;;;;;;;14.57;10.40;;;-0.20;99.90;;;;;;2034048;29;20534;-80
2023/01/28 05:34:38;;;;;;;14.95;10.80;;;-0.20;99.90;;;;;;2034025;29;20372;-78
2023/01/28 05:35:46;;;;;;;15.85;10.35;;;-0.20;99.90;;;;;;2034699;29;20030;-80
2023/01/28 05:36:46;;;;;;;14.73;10.73;;;-0.20;99.90;;;;;;2043477;28;20126;-80
2023/01/28 05:38:02;;;;;;;15.82;10.43;;;-0.20;99.90;;;;;;2031110;29;20095;-78
2023/01/28 05:39:02;;;;;;;15.52;9.95;;;-0.20;99.90;;;;;;2029665;29;20526;-79
2023/01/28 05:40:04;;;;;;;15.10;10.27;;;-0.20;99.90;;;;;;2038489;29;20043;-79
2023/01/28 05:41:05;;;;;;;15.50;10.23;;;-0.20;99.90;;;;;;2042169;28;20027;-79
2023/01/28 05:42:06;;;;;;;15.32;10.30;;;-0.10;99.90;;;;;;2033858;29;20020;-78
2023/01/28 05:43:09;;;;;;;15.52;10.15;;;-0.20;99.90;;;;;;2033748;29;20115;-79
2023/01/28 05:44:13;;;;;;;15.13;10.20;;;-0.30;99.90;;;;;;2043474;29;20024;-79
2023/01/28 05:45:42;;;;;;;13.82;10.23;;;-0.20;99.90;;;;;;2030532;28;20058;-79
2023/01/28 05:46:55;;;;;;;15.57;10.57;;;-0.20;99.90;;;;;;2042208;29;20114;-79
2023/01/28 05:48:17;;;;;;;16.10;10.25;;;-0.30;99.90;;;;;;2024484;29;20044;-80
2023/01/28 05:49:38;;;;;;;13.55;9.40;;;-0.30;99.90;;;;;;2031637;29;20445;-80
2023/01/28 05:50:58;;;;;;;14.35;10.23;;;-0.30;99.90;;;;;;2042180;29;20035;-77
2023/01/28 05:52:06;;;;;;;15.18;10.18;;;-0.20;99.90;;;;;;2041837;28;20339;-79
2023/01/28 05:53:08;;;;;;;15.13;9.88;;;-0.30;99.90;;;;;;2041674;29;20554;-81
2023/01/28 05:54:10;;;;;;;14.43;9.93;;;-0.30;99.90;;;;;;2041899;29;20019;-78
2023/01/28 05:55:11;;;;;;;16.15;9.95;;;-0.30;99.90;;;;;;2035631;29;20039;-80
2023/01/28 05:56:11;;;;;;;13.73;10.00;;;-0.30;99.90;;;;;;2025843;29;20036;-77
2023/01/28 05:57:14;;;;;;;14.23;9.80;;;-0.20;99.90;;;;;;2026117;29;20031;-80
2023/01/28 05:58:15;;;;;;;14.65;9.40;;;-0.20;99.90;;;;;;2034171;29;20031;-83
2023/01/28 05:59:16;;;;;;;15.68;9.73;;;-0.20;99.90;;;;;;2046805;28;20447;-82
2023/01/28 06:00:18;;;;;;;14.30;9.38;;;-0.20;99.90;;;;;;2042802;29;20394;-78
2023/01/28 06:01:19;;;;;;;15.35;10.45;;;-0.20;99.90;;;;;;2042964;29;20027;-79
2023/01/28 06:02:25;;;;;;;14.63;9.85;;;-0.20;99.90;;;;;;2043740;28;20035;-79
2023/01/28 06:03:29;;;;;;;15.75;10.05;;;-0.20;99.90;;;;;;2039558;29;20032;-79
2023/01/28 06:04:30;;;;;;;13.68;9.55;;;-0.20;99.90;;;;;;2034114;29;21035;-79
2023/01/28 06:05:31;;;;;;;15.85;9.98;;;-0.10;99.90;;;;;;2034695;29;20043;-81
2023/01/28 06:06:34;;;;;;;14.85;9.98;;;-0.10;99.90;;;;;;2034552;29;20050;-82
2023/01/28 06:07:38;;;;;;;15.27;9.63;;;-0.10;99.90;;;;;;2039583;29;20663;-85
2023/01/28 06:08:40;;;;;;;15.35;10.10;;;-0.10;99.90;;;;;;2038533;28;20802;-79
2023/01/28 06:09:41;;;;;;;15.38;10.15;;;-0.20;99.90;;;;;;2034056;29;20042;-80
2023/01/28 06:10:42;;;;;;;16.67;10.43;;;-0.20;99.90;;;;;;2026955;29;20036;-79
2023/01/28 06:11:45;;;;;;;13.93;10.05;;;-0.20;99.90;;;;;;2035038;29;20451;-80
2023/01/28 06:12:47;;;;;;;18.95;11.18;;;-0.20;99.90;;;;;;2044183;29;20094;-78